createdAt,value
2022-11-06T00:01:16.162Z,2.53
2022-11-06T00:03:43.657Z,2.50
2022-11-06T00:06:34.704Z,2.67
2022-11-06T00:09:09.395Z,1.65
2022-11-06T00:11:37.610Z,2.72
2022-11-06T00:14:06.939Z,3.92
2022-11-06T00:16:36.446Z,2.47
2022-11-06T00:19:03.679Z,2.45
2022-11-06T00:21:33.553Z,2.15
2022-11-06T00:24:04.694Z,1.52
2022-11-06T00:26:34.372Z,3.03
2022-11-06T00:29:02.523Z,2.78
2022-11-06T00:31:35.887Z,3.40
2022-11-06T00:34:06.895Z,2.83
2022-11-06T00:36:33.972Z,2.80
2022-11-06T00:39:01.371Z,1.88
2022-11-06T00:41:35.145Z,2.13
2022-11-06T00:44:04.759Z,2.10
2022-11-06T00:46:32.012Z,2.63
2022-11-06T00:48:59.167Z,2.25
2022-11-06T00:51:30.836Z,2.20
2022-11-06T00:54:04.323Z,2.10
2022-11-06T00:56:33.261Z,2.28
2022-11-06T00:59:02.013Z,1.55
2022-11-06T01:01:31.871Z,2.50
2022-11-06T01:04:14.849Z,2.50
2022-11-06T01:09:13.784Z,4.05
2022-11-06T01:12:11.781Z,2.20
2022-11-06T01:14:33.156Z,3.42
2022-11-06T01:17:00.162Z,2.08
2022-11-06T01:19:27.158Z,2.10
2022-11-06T01:21:57.004Z,3.10
2022-11-06T01:24:27.995Z,2.10
2022-11-06T01:29:42.775Z,1.83
2022-11-06T01:32:16.383Z,2.60
2022-11-06T01:34:44.719Z,2.28
2022-11-06T01:37:14.474Z,2.55
2022-11-06T01:39:42.189Z,2.38
2022-11-06T01:42:12.441Z,2.17
2022-11-06T01:44:42.309Z,2.95
2022-11-06T01:47:28.208Z,2.33
2022-11-06T01:49:58.506Z,1.92
2022-11-06T01:52:27.082Z,2.58
2022-11-06T01:54:59.458Z,3.72
2022-11-06T01:57:26.494Z,4.18
2022-11-06T01:59:55.353Z,3.33
2022-11-06T02:02:22.940Z,4.05
2022-11-06T02:04:51.736Z,2.60
2022-11-06T02:07:19.977Z,3.03
2022-11-06T02:09:47.089Z,2.47
2022-11-06T02:12:41.613Z,2.65
2022-11-06T02:15:16.168Z,4.47
2022-11-06T02:17:58.495Z,3.55
2022-11-06T02:20:34.966Z,2.53
2022-11-06T02:23:41.802Z,2.40
2022-11-06T02:26:47.469Z,3.88
2022-11-06T02:29:22.819Z,4.40
2022-11-06T02:31:56.076Z,3.45
2022-11-06T02:34:26.281Z,3.53
2022-11-06T02:37:01.709Z,4.15
2022-11-06T02:39:33.176Z,3.50
2022-11-06T02:42:01.561Z,3.75
2022-11-06T02:44:30.929Z,5.18
2022-11-06T02:47:02.731Z,3.80
2022-11-06T02:50:04.448Z,2.80
2022-11-06T02:52:40.382Z,4.18
2022-11-06T02:55:29.302Z,4.10
2022-11-06T02:58:01.222Z,4.53
2022-11-06T03:00:28.815Z,3.70
2022-11-06T03:03:04.590Z,4.43
2022-11-06T03:05:36.629Z,3.70
2022-11-06T03:08:14.157Z,5.18
2022-11-06T03:10:50.045Z,4.65
2022-11-06T03:13:40.157Z,3.30
2022-11-06T03:16:23.645Z,3.90
2022-11-06T03:19:06.243Z,4.00
2022-11-06T03:21:39.089Z,5.57
2022-11-06T03:26:44.423Z,4.83
2022-11-06T03:29:14.909Z,3.05
2022-11-06T03:31:59.047Z,3.92
2022-11-06T03:34:32.388Z,4.93
2022-11-06T03:37:11.214Z,4.13
2022-11-06T03:39:44.218Z,4.20
2022-11-06T03:42:18.547Z,4.25
2022-11-06T03:44:52.711Z,4.95
2022-11-06T03:47:25.346Z,4.95
2022-11-06T03:50:09.260Z,5.00
2022-11-06T03:52:44.544Z,6.50
2022-11-06T03:55:16.934Z,4.90
2022-11-06T03:57:47.333Z,6.53
2022-11-06T04:00:15.100Z,5.20
2022-11-06T04:02:47.673Z,6.45
2022-11-06T04:05:23.811Z,6.32
2022-11-06T04:08:14.330Z,5.90
2022-11-06T04:11:06.750Z,5.38
2022-11-06T04:13:53.567Z,5.47
2022-11-06T04:16:21.286Z,5.20
2022-11-06T04:18:48.214Z,4.75
2022-11-06T04:21:45.398Z,5.03
2022-11-06T04:24:46.966Z,7.88
2022-11-06T04:27:28.985Z,7.20
2022-11-06T04:30:17.843Z,4.63
2022-11-06T04:33:00.028Z,7.20
2022-11-06T04:35:30.300Z,7.10
2022-11-06T04:38:14.619Z,7.00
2022-11-06T04:40:50.430Z,7.13
2022-11-06T04:43:42.450Z,5.40
2022-11-06T04:46:14.174Z,6.28
2022-11-06T04:48:41.894Z,5.57
2022-11-06T04:51:11.449Z,6.40
2022-11-06T04:53:39.710Z,6.60
2022-11-06T04:56:12.282Z,5.85
2022-11-06T04:58:39.926Z,5.53
2022-11-06T05:01:07.242Z,6.10
2022-11-06T05:03:34.482Z,8.10
2022-11-06T05:06:03.524Z,5.05
2022-11-06T05:08:30.805Z,6.35
2022-11-06T05:10:57.681Z,6.07
2022-11-06T05:13:24.704Z,5.38
2022-11-06T05:15:57.427Z,5.53
2022-11-06T05:21:11.937Z,6.25
2022-11-06T05:23:39.211Z,6.30
2022-11-06T05:26:07.675Z,6.65
2022-11-06T05:28:34.890Z,6.30
2022-11-06T05:31:02.156Z,8.32
2022-11-06T05:33:29.241Z,7.50
2022-11-06T05:35:56.177Z,6.05
2022-11-06T05:38:23.137Z,7.00
2022-11-06T05:40:50.157Z,8.25
2022-11-06T05:43:17.262Z,12.05
2022-11-06T05:45:44.462Z,12.63
2022-11-06T05:48:11.723Z,12.80
2022-11-06T05:50:38.927Z,14.85
2022-11-06T05:53:16.289Z,17.40
2022-11-06T05:55:45.210Z,15.68
2022-11-06T05:58:12.444Z,12.00
2022-11-06T06:00:40.433Z,9.88
2022-11-06T06:03:07.672Z,8.43
2022-11-06T06:05:34.667Z,9.93
2022-11-06T06:08:01.621Z,9.98
2022-11-06T06:10:28.545Z,10.52
2022-11-06T06:12:55.489Z,8.35
2022-11-06T06:15:22.504Z,9.88
2022-11-06T06:17:49.477Z,8.43
2022-11-06T06:20:16.564Z,7.97
2022-11-06T06:22:43.518Z,8.68
2022-11-06T06:25:18.323Z,9.30
2022-11-06T06:27:49.559Z,8.75
2022-11-06T06:30:16.545Z,9.00
2022-11-06T06:32:43.567Z,6.93
2022-11-06T06:35:10.993Z,9.27
2022-11-06T06:37:39.895Z,11.00
2022-11-06T06:40:07.397Z,11.13
2022-11-06T06:42:34.371Z,7.10
2022-11-06T06:45:01.294Z,6.88
2022-11-06T06:47:28.316Z,7.75
2022-11-06T06:49:55.414Z,9.32
2022-11-06T06:52:22.443Z,7.25
2022-11-06T06:54:49.430Z,11.40
2022-11-06T06:57:16.793Z,9.70
2022-11-06T06:59:43.769Z,13.00
2022-11-06T08:11:49.577Z,12.68
2022-11-06T08:18:09.447Z,10.48
2022-11-06T08:24:11.547Z,14.65
2022-11-06T08:30:29.868Z,15.27
2022-11-06T08:33:31.684Z,12.73
2022-11-06T08:36:05.548Z,15.48
2022-11-06T08:38:37.741Z,12.73
2022-11-06T08:44:42.591Z,13.63
2022-11-06T08:47:10.128Z,12.65
2022-11-06T08:49:40.748Z,13.15
2022-11-06T08:52:10.936Z,18.30
2022-11-06T08:54:38.454Z,12.38
2022-11-06T08:57:05.555Z,14.95
2022-11-06T08:59:33.261Z,13.90
2022-11-06T09:02:01.035Z,10.88
2022-11-06T09:04:28.196Z,11.77
2022-11-06T09:06:57.686Z,12.35
2022-11-06T09:09:32.113Z,14.07
2022-11-06T09:12:03.681Z,13.48
2022-11-06T09:14:30.718Z,10.88
2022-11-06T09:16:58.565Z,14.77
2022-11-06T09:19:27.012Z,12.45
2022-11-06T09:21:55.040Z,11.88
2022-11-06T09:24:43.250Z,13.73
2022-11-06T09:27:09.710Z,13.70
2022-11-06T09:29:40.928Z,11.70
2022-11-06T09:32:08.185Z,12.13
2022-11-06T09:34:35.163Z,11.82
2022-11-06T09:37:03.504Z,11.95
2022-11-06T09:39:30.475Z,11.45
2022-11-06T09:42:21.886Z,10.02
2022-11-06T09:45:02.537Z,11.15
2022-11-06T09:47:35.674Z,12.23
2022-11-06T09:50:06.995Z,11.48
2022-11-06T09:52:45.159Z,12.20
2022-11-06T09:55:17.965Z,12.95
2022-11-06T10:00:17.823Z,13.02
2022-11-06T10:02:50.561Z,12.23
2022-11-06T10:10:50.170Z,7.85
2022-11-06T10:13:47.714Z,7.53
2022-11-06T10:16:42.607Z,8.73
2022-11-06T10:19:15.222Z,8.13
2022-11-06T10:21:49.100Z,11.25
2022-11-06T10:24:29.769Z,10.52
2022-11-06T10:26:58.240Z,9.90
2022-11-06T10:29:59.172Z,7.72
2022-11-06T10:32:55.635Z,11.75
2022-11-06T10:35:54.809Z,9.75
2022-11-06T10:38:35.231Z,7.53
2022-11-06T10:41:02.522Z,9.02
2022-11-06T10:43:57.199Z,9.20
2022-11-06T10:46:27.408Z,10.05
2022-11-06T10:48:59.498Z,8.13
2022-11-06T10:51:38.772Z,8.75
2022-11-06T10:54:40.697Z,6.78
2022-11-06T10:57:45.799Z,8.43
2022-11-06T11:00:18.359Z,8.32
2022-11-06T11:02:49.540Z,9.13
2022-11-06T11:05:20.116Z,8.38
2022-11-06T11:07:49.661Z,8.85
2022-11-06T11:13:38.452Z,9.50
2022-11-06T11:16:12.441Z,9.40
2022-11-06T11:18:39.799Z,10.05
2022-11-06T11:21:19.042Z,12.43
2022-11-06T11:23:49.078Z,10.48
2022-11-06T11:26:31.334Z,10.20
2022-11-06T11:29:01.111Z,10.23
2022-11-06T11:31:31.027Z,8.95
2022-11-06T11:34:01.907Z,7.97
2022-11-06T11:37:12.685Z,11.80
2022-11-06T11:39:44.469Z,10.85
2022-11-06T11:42:24.683Z,7.43
2022-11-06T11:45:10.999Z,9.02
2022-11-06T11:50:32.565Z,9.43
2022-11-06T11:53:14.898Z,19.17
2022-11-06T11:55:45.331Z,10.50
2022-11-06T11:58:26.374Z,7.90
2022-11-06T12:00:56.977Z,6.10
2022-11-06T12:03:35.454Z,16.27
2022-11-06T12:06:33.790Z,10.55
2022-11-06T12:12:53.617Z,7.55
2022-11-06T12:18:09.626Z,9.30
2022-11-06T12:20:56.355Z,9.88
2022-11-06T12:23:52.191Z,9.93
2022-11-06T12:26:25.100Z,8.07
2022-11-06T12:29:04.630Z,7.10
2022-11-06T12:31:54.025Z,8.68
2022-11-06T12:34:40.981Z,7.53
2022-11-06T12:37:19.084Z,8.50
2022-11-06T12:39:54.990Z,10.43
2022-11-06T12:42:26.354Z,7.80
2022-11-06T12:44:53.406Z,7.82
2022-11-06T12:47:52.711Z,9.15
2022-11-06T12:50:47.971Z,9.65
2022-11-06T12:53:31.325Z,8.68
2022-11-06T12:56:39.209Z,11.80
2022-11-06T12:59:27.244Z,9.27
2022-11-06T13:02:08.529Z,8.00
2022-11-06T13:04:50.893Z,8.70
2022-11-06T13:07:39.716Z,10.30
2022-11-06T13:14:19.272Z,9.20
2022-11-06T13:17:07.777Z,8.73
2022-11-06T13:20:18.634Z,10.50
2022-11-06T13:22:52.122Z,10.70
2022-11-06T13:25:45.230Z,8.15
2022-11-06T13:31:03.398Z,9.10
2022-11-06T13:33:54.805Z,9.98
2022-11-06T13:36:22.737Z,10.88
2022-11-06T13:38:56.120Z,11.15
2022-11-06T13:41:32.185Z,10.27
2022-11-06T13:44:18.200Z,9.98
2022-11-06T13:47:08.492Z,8.77
2022-11-06T13:49:48.465Z,9.90
2022-11-06T13:52:31.156Z,9.50
2022-11-06T13:55:25.093Z,9.68
2022-11-06T13:58:34.937Z,9.57
2022-11-06T14:01:33.288Z,11.52
2022-11-06T14:04:49.627Z,12.73
2022-11-06T14:07:22.786Z,10.05
2022-11-06T14:09:50.258Z,9.75
2022-11-06T14:12:21.824Z,9.93
2022-11-06T14:14:49.803Z,11.73
2022-11-06T14:17:17.097Z,9.52
2022-11-06T14:19:51.235Z,9.25
2022-11-06T14:22:36.760Z,11.35
2022-11-06T14:25:31.645Z,13.40
2022-11-06T14:27:58.858Z,11.80
2022-11-06T14:31:05.288Z,12.75
2022-11-06T14:33:49.487Z,17.27
2022-11-06T14:36:25.589Z,18.65
2022-11-06T14:38:54.224Z,27.33
2022-11-06T14:41:36.853Z,25.23
2022-11-06T14:44:35.762Z,22.30
2022-11-06T14:47:07.239Z,35.22
2022-11-06T14:49:50.280Z,29.20
2022-11-06T14:52:38.024Z,25.73
2022-11-06T14:55:07.110Z,21.10
2022-11-06T14:57:50.429Z,20.60
2022-11-06T15:03:55.031Z,21.80
2022-11-06T15:06:34.878Z,31.63
2022-11-06T15:09:24.616Z,29.02
2022-11-06T15:12:04.248Z,30.55
2022-11-06T15:14:31.536Z,27.38
2022-11-06T15:17:06.767Z,29.45
2022-11-06T15:19:46.741Z,21.98
2022-11-06T15:22:28.912Z,21.63
2022-11-06T15:25:33.151Z,52.20
2022-11-06T15:28:41.268Z,34.50
2022-11-06T15:31:15.760Z,24.40
2022-11-06T15:33:59.839Z,31.60
2022-11-06T15:36:29.674Z,68.80
2022-11-06T15:38:57.043Z,58.70
2022-11-06T15:41:26.854Z,50.42
2022-11-06T15:43:56.004Z,58.33
2022-11-06T15:46:27.397Z,47.55
2022-11-06T15:49:18.562Z,40.25
2022-11-06T15:51:54.236Z,41.13
2022-11-06T15:54:32.009Z,37.33
2022-11-06T15:57:05.165Z,37.40
2022-11-06T15:59:33.107Z,39.55
2022-11-06T16:02:05.636Z,31.98
2022-11-06T16:04:33.652Z,34.72
2022-11-06T16:07:00.936Z,35.00
2022-11-06T16:09:28.807Z,35.10
2022-11-06T16:11:57.754Z,41.10
2022-11-06T16:14:25.059Z,32.55
2022-11-06T16:16:55.383Z,33.03
2022-11-06T16:19:32.456Z,32.45
2022-11-06T16:22:08.009Z,35.20
2022-11-06T16:24:48.047Z,33.80
2022-11-06T16:27:16.347Z,33.83
2022-11-06T16:29:54.528Z,34.15
2022-11-06T16:32:27.228Z,31.85
2022-11-06T16:37:30.926Z,43.53
2022-11-06T16:40:00.316Z,66.90
2022-11-06T16:42:34.737Z,92.90
2022-11-06T16:45:11.328Z,105.05
2022-11-06T16:47:38.763Z,92.82
2022-11-06T16:50:49.383Z,111.43
2022-11-06T16:53:31.004Z,103.68
2022-11-06T16:56:05.954Z,102.05
2022-11-06T16:58:48.103Z,93.20
2022-11-06T17:01:20.481Z,101.00
2022-11-06T17:04:04.493Z,99.72
2022-11-06T17:06:35.828Z,105.20
2022-11-06T17:09:31.074Z,113.05
2022-11-06T17:12:00.328Z,113.80
2022-11-06T17:14:28.379Z,122.30
2022-11-06T17:16:58.480Z,130.50
2022-11-06T17:19:27.479Z,128.40
2022-11-06T17:21:54.905Z,122.78
2022-11-06T17:24:38.271Z,136.85
2022-11-06T17:27:06.647Z,143.40
2022-11-06T17:29:36.842Z,152.43
2022-11-06T17:32:04.391Z,131.77
2022-11-06T17:34:31.937Z,133.13
2022-11-06T17:36:59.409Z,135.40
2022-11-06T17:39:27.029Z,126.32
2022-11-06T17:41:55.229Z,138.63
2022-11-06T17:44:24.981Z,149.80
2022-11-06T17:46:52.579Z,139.30
2022-11-06T17:49:20.289Z,137.75
2022-11-06T17:51:53.859Z,142.68
2022-11-06T17:54:23.885Z,134.80
2022-11-06T17:56:52.032Z,136.05
2022-11-06T17:59:20.626Z,144.60
2022-11-06T18:01:50.936Z,145.80
2022-11-06T18:04:20.024Z,152.48
2022-11-06T18:06:49.227Z,161.13
2022-11-06T18:09:16.980Z,155.20
2022-11-06T18:11:44.449Z,146.10
2022-11-06T18:14:12.902Z,141.60
2022-11-06T18:16:43.927Z,143.88
2022-11-06T18:19:15.616Z,144.65
2022-11-06T18:21:43.753Z,151.75
2022-11-06T18:24:10.890Z,140.20
2022-11-06T18:26:38.587Z,163.82
2022-11-06T18:29:07.175Z,147.10
2022-11-06T18:31:36.501Z,152.00
2022-11-06T18:34:05.664Z,152.57
2022-11-06T18:36:36.246Z,141.70
2022-11-06T18:39:05.916Z,132.00
2022-11-06T18:41:34.963Z,129.55
2022-11-06T18:44:03.988Z,142.88
2022-11-06T18:46:32.063Z,133.20
2022-11-06T18:49:07.955Z,128.60
2022-11-06T18:51:36.977Z,115.57
2022-11-06T18:54:07.184Z,107.13
2022-11-06T18:56:36.557Z,95.38
2022-11-06T18:59:05.729Z,101.60
2022-11-06T19:01:34.925Z,98.53
2022-11-06T19:04:04.886Z,102.53
2022-11-06T19:06:32.771Z,109.60
2022-11-06T19:09:00.298Z,120.45
2022-11-06T19:11:27.682Z,116.28
2022-11-06T19:13:55.343Z,112.18
2022-11-06T19:16:22.996Z,112.97
2022-11-06T19:21:30.661Z,122.05
2022-11-06T19:24:07.271Z,116.13
2022-11-06T19:26:36.592Z,129.82
2022-11-06T19:29:09.577Z,116.88
2022-11-06T19:34:17.058Z,100.55
2022-11-06T19:36:44.589Z,102.20
2022-11-06T19:39:15.993Z,105.30
2022-11-06T19:41:43.744Z,101.63
2022-11-06T19:44:11.470Z,102.63
2022-11-06T19:46:39.873Z,96.88
2022-11-06T19:49:09.326Z,96.63
2022-11-06T19:51:37.794Z,102.38
2022-11-06T19:54:09.457Z,103.13
2022-11-06T19:57:28.246Z,102.60
2022-11-06T19:59:26.083Z,101.93
2022-11-06T20:01:54.294Z,111.88
2022-11-06T20:04:22.152Z,112.47
2022-11-06T20:06:49.782Z,112.68
2022-11-06T20:09:17.399Z,104.57
2022-11-06T20:11:46.053Z,120.35
2022-11-06T20:14:20.045Z,123.07
2022-11-06T20:16:47.735Z,134.05
2022-11-06T20:19:15.264Z,133.82
2022-11-06T20:21:42.763Z,136.20
2022-11-06T20:24:10.999Z,149.30
2022-11-06T20:26:38.730Z,161.52
2022-11-06T20:29:06.512Z,159.95
2022-11-06T20:31:34.276Z,153.23
2022-11-06T20:34:02.084Z,163.20
2022-11-06T20:36:31.685Z,154.68
2022-11-06T20:39:01.461Z,157.07
2022-11-06T20:41:30.189Z,160.75
2022-11-06T20:43:57.646Z,177.57
2022-11-06T20:46:26.026Z,175.85
2022-11-06T20:48:53.644Z,166.45
2022-11-06T20:51:24.257Z,161.77
2022-11-06T20:53:52.442Z,174.65
2022-11-06T20:56:25.372Z,177.48
2022-11-06T20:58:57.314Z,172.95
2022-11-06T21:01:27.186Z,174.02
2022-11-06T21:03:56.741Z,181.02
2022-11-06T21:06:25.357Z,162.30
2022-11-06T21:08:53.363Z,171.07
2022-11-06T21:11:23.882Z,188.82
2022-11-06T21:13:53.602Z,168.82
2022-11-06T21:16:50.422Z,185.45
2022-11-06T21:19:18.050Z,191.73
2022-11-06T21:21:45.692Z,183.45
2022-11-06T21:24:13.199Z,193.38
2022-11-06T21:26:40.672Z,193.98
2022-11-06T21:29:10.904Z,194.45
2022-11-06T21:31:43.980Z,188.73
2022-11-06T21:34:16.364Z,207.68
2022-11-06T21:36:43.376Z,203.70
2022-11-06T21:39:19.129Z,210.82
2022-11-06T21:41:46.845Z,225.02
2022-11-06T21:44:17.470Z,200.40
2022-11-06T21:46:46.061Z,202.20
2022-11-06T21:49:14.480Z,186.32
2022-11-06T21:51:42.033Z,198.93
2022-11-06T21:54:29.391Z,190.50
2022-11-06T21:56:56.357Z,190.40
2022-11-06T21:59:28.557Z,191.70
2022-11-06T22:01:56.180Z,195.93
2022-11-06T22:04:23.693Z,198.25
2022-11-06T22:06:52.507Z,200.13
2022-11-06T22:09:25.040Z,202.93
2022-11-06T22:14:19.787Z,237.98
2022-11-06T22:16:48.087Z,228.00
2022-11-06T22:19:16.316Z,225.68
2022-11-06T22:21:43.648Z,222.75
2022-11-06T22:24:12.550Z,201.95
2022-11-06T22:26:40.100Z,192.25
2022-11-06T22:29:11.022Z,197.43
2022-11-06T22:31:38.181Z,193.93
2022-11-06T22:34:05.357Z,185.25
2022-11-06T22:36:32.357Z,181.25
2022-11-06T22:39:00.796Z,179.35
2022-11-06T22:41:27.814Z,191.40
2022-11-06T22:43:59.203Z,175.95
2022-11-06T22:46:26.992Z,180.68
2022-11-06T22:48:54.267Z,188.07
2022-11-06T22:51:25.075Z,189.38
2022-11-06T22:53:52.934Z,197.32
2022-11-06T22:56:21.899Z,203.25
2022-11-06T22:58:56.454Z,191.63
2022-11-06T23:01:25.358Z,213.98
2022-11-06T23:03:56.841Z,218.65
2022-11-06T23:06:25.376Z,213.05
2022-11-06T23:08:52.446Z,200.27
2022-11-06T23:11:19.658Z,205.65
2022-11-06T23:13:46.743Z,193.95
2022-11-06T23:16:18.816Z,193.23
2022-11-06T23:18:45.851Z,205.50
2022-11-06T23:21:16.604Z,204.32
2022-11-06T23:23:44.419Z,219.45
2022-11-06T23:26:18.120Z,216.18
2022-11-06T23:28:46.055Z,232.27
2022-11-06T23:31:15.348Z,224.75
2022-11-06T23:33:45.270Z,200.57
2022-11-06T23:36:14.357Z,210.75
2022-11-06T23:38:41.930Z,206.80
2022-11-06T23:41:33.039Z,204.02
2022-11-06T23:44:00.897Z,188.25
2022-11-06T23:46:30.396Z,181.95
2022-11-06T23:48:58.029Z,192.40
2022-11-06T23:51:26.218Z,184.90
2022-11-06T23:53:54.595Z,179.20
2022-11-06T23:56:21.673Z,172.40
2022-11-06T23:58:48.610Z,166.13
